KAL418 PGUM-RKSI
Flight info
| Callsign | KAL418 |
|---|---|
| Flight time | N/A |
| Altitude | 38000 |
| Route | UNZ G339 NATSS DCT 20N139E DCT SABGU G339 LUKRA Y208 INVOK Z91 PSN Y782 BITUX Z53 BASEM Y685 GUKDO GUKDO2E |
| Aircraft | B738/M-SDE2E3FGHIRWXY/LB1 |
Departure
| Time | 2026-04-26 10:21 |
|---|---|
| Airport | Antonio B. Won Pat International Airport (PGUM) |
Arrival
| Time | N/A |
|---|---|
| Airport | Incheon International Airport (RKSI) |
| Time | Latitude | Longitude | Altitude | Speed | Heading |
|---|---|---|---|---|---|
| 2026-04-26 09:57 | 13.49196 | 144.80579 | 299 ft | 0 kts | 331° |
| 2026-04-26 10:09 | 13.49179 | 144.80589 | 300 ft | 4 kts | 330° |
| 2026-04-26 10:10 | 13.49156 | 144.80603 | 297 ft | 4 kts | 328° |
| 2026-04-26 10:10 | 13.49133 | 144.80618 | 295 ft | 4 kts | 327° |
| 2026-04-26 10:10 | 13.49111 | 144.80631 | 295 ft | 4 kts | 326° |
| 2026-04-26 10:10 | 13.49099 | 144.80635 | 295 ft | 4 kts | 231° |
| 2026-04-26 10:11 | 13.49090 | 144.80631 | 296 ft | 4 kts | 194° |
| 2026-04-26 10:11 | 13.49115 | 144.80640 | 298 ft | 4 kts | 219° |
| 2026-04-26 10:11 | 13.49129 | 144.80660 | 300 ft | 4 kts | 241° |
| 2026-04-26 10:11 | 13.49137 | 144.80674 | 300 ft | 0 kts | 240° |
| 2026-04-26 10:13 | 13.49133 | 144.80667 | 300 ft | 2 kts | 240° |
| 2026-04-26 10:13 | 13.49122 | 144.80646 | 298 ft | 5 kts | 242° |
| 2026-04-26 10:13 | 13.49103 | 144.80609 | 295 ft | 7 kts | 242° |
| 2026-04-26 10:14 | 13.49075 | 144.80556 | 296 ft | 10 kts | 242° |
| 2026-04-26 10:14 | 13.49039 | 144.80489 | 294 ft | 12 kts | 241° |
| 2026-04-26 10:14 | 13.48987 | 144.80420 | 295 ft | 13 kts | 225° |
| 2026-04-26 10:14 | 13.48920 | 144.80355 | 293 ft | 14 kts | 233° |
| 2026-04-26 10:15 | 13.48869 | 144.80262 | 296 ft | 16 kts | 243° |
| 2026-04-26 10:15 | 13.48816 | 144.80152 | 292 ft | 18 kts | 245° |
| 2026-04-26 10:15 | 13.48759 | 144.80028 | 290 ft | 20 kts | 245° |
| 2026-04-26 10:15 | 13.48698 | 144.79894 | 292 ft | 22 kts | 245° |
| 2026-04-26 10:16 | 13.48631 | 144.79748 | 288 ft | 23 kts | 245° |
| 2026-04-26 10:16 | 13.48565 | 144.79602 | 287 ft | 22 kts | 244° |
| 2026-04-26 10:16 | 13.48499 | 144.79460 | 285 ft | 22 kts | 245° |
| 2026-04-26 10:16 | 13.48436 | 144.79322 | 285 ft | 21 kts | 245° |
| 2026-04-26 10:17 | 13.48375 | 144.79188 | 284 ft | 20 kts | 245° |
| 2026-04-26 10:17 | 13.48315 | 144.79058 | 284 ft | 20 kts | 244° |
| 2026-04-26 10:17 | 13.48258 | 144.78933 | 284 ft | 19 kts | 245° |
| 2026-04-26 10:17 | 13.48204 | 144.78810 | 283 ft | 19 kts | 245° |
| 2026-04-26 10:18 | 13.48149 | 144.78693 | 283 ft | 18 kts | 244° |
| 2026-04-26 10:18 | 13.48097 | 144.78580 | 282 ft | 17 kts | 245° |
| 2026-04-26 10:18 | 13.48047 | 144.78470 | 282 ft | 17 kts | 245° |
| 2026-04-26 10:18 | 13.47999 | 144.78364 | 279 ft | 16 kts | 245° |
| 2026-04-26 10:19 | 13.47968 | 144.78297 | 279 ft | 16 kts | 244° |
| 2026-04-26 10:19 | 13.47923 | 144.78199 | 278 ft | 14 kts | 245° |
| 2026-04-26 10:19 | 13.47881 | 144.78137 | 276 ft | 11 kts | 210° |
| 2026-04-26 10:19 | 13.47795 | 144.78160 | 265 ft | 9 kts | 116° |
| 2026-04-26 10:20 | 13.47810 | 144.78219 | 265 ft | 6 kts | 64° |
| 2026-04-26 10:20 | 13.47811 | 144.78221 | 265 ft | 0 kts | 64° |
| 2026-04-26 10:20 | 13.47819 | 144.78238 | 265 ft | 18 kts | 64° |
| 2026-04-26 10:20 | 13.47979 | 144.78585 | 268 ft | 88 kts | 65° |
| 2026-04-26 10:21 | 13.48326 | 144.79345 | 280 ft | 146 kts | 65° |
| 2026-04-26 10:21 | 13.48813 | 144.80428 | 465 ft | 180 kts | 66° |
| 2026-04-26 10:21 | 13.49345 | 144.81578 | 1248 ft | 175 kts | 64° |
| 2026-04-26 10:21 | 13.49877 | 144.82714 | 2084 ft | 178 kts | 64° |
| 2026-04-26 10:22 | 13.50418 | 144.83853 | 2697 ft | 180 kts | 62° |
| 2026-04-26 10:22 | 13.51335 | 144.84739 | 3163 ft | 190 kts | 27° |
| 2026-04-26 10:22 | 13.52698 | 144.84867 | 3485 ft | 213 kts | 353° |
| 2026-04-26 10:22 | 13.54078 | 144.84106 | 3624 ft | 242 kts | 319° |
| 2026-04-26 10:23 | 13.55077 | 144.82625 | 3781 ft | 262 kts | 302° |
| 2026-04-26 10:23 | 13.55942 | 144.80955 | 4173 ft | 267 kts | 301° |
| 2026-04-26 10:23 | 13.56826 | 144.79214 | 4402 ft | 284 kts | 301° |
| 2026-04-26 10:23 | 13.57998 | 144.77570 | 4814 ft | 288 kts | 319° |
| 2026-04-26 10:24 | 13.59462 | 144.76165 | 5376 ft | 288 kts | 321° |
| 2026-04-26 10:24 | 13.60948 | 144.74773 | 5947 ft | 291 kts | 320° |
| 2026-04-26 10:24 | 13.62442 | 144.73357 | 6523 ft | 293 kts | 319° |
| 2026-04-26 10:24 | 13.63933 | 144.71921 | 7077 ft | 296 kts | 319° |
| 2026-04-26 10:25 | 13.65433 | 144.70458 | 7615 ft | 299 kts | 318° |
| 2026-04-26 10:25 | 13.66946 | 144.68967 | 8190 ft | 302 kts | 317° |
| 2026-04-26 10:25 | 13.68465 | 144.67458 | 8778 ft | 305 kts | 317° |
| 2026-04-26 10:25 | 13.69998 | 144.65925 | 9368 ft | 309 kts | 316° |
| 2026-04-26 10:26 | 13.71543 | 144.64377 | 10001 ft | 311 kts | 316° |
| 2026-04-26 10:26 | 13.73110 | 144.62801 | 10364 ft | 324 kts | 316° |
| 2026-04-26 10:26 | 13.74775 | 144.61122 | 10458 ft | 345 kts | 315° |
| 2026-04-26 10:26 | 13.76537 | 144.59347 | 10593 ft | 363 kts | 315° |
| 2026-04-26 10:27 | 13.78374 | 144.57493 | 10858 ft | 375 kts | 315° |
| 2026-04-26 10:27 | 13.80266 | 144.55582 | 11154 ft | 386 kts | 315° |
| 2026-04-26 10:27 | 13.82181 | 144.53648 | 11818 ft | 380 kts | 315° |
| 2026-04-26 10:27 | 13.84053 | 144.51756 | 12616 ft | 377 kts | 315° |
| 2026-04-26 10:28 | 13.85935 | 144.49852 | 13086 ft | 382 kts | 315° |
| 2026-04-26 10:28 | 13.87839 | 144.47925 | 13548 ft | 386 kts | 315° |
| 2026-04-26 10:28 | 13.89758 | 144.45983 | 14049 ft | 388 kts | 315° |
| 2026-04-26 10:28 | 13.91685 | 144.44033 | 14561 ft | 388 kts | 315° |
| 2026-04-26 10:29 | 13.93612 | 144.42083 | 15060 ft | 390 kts | 315° |
| 2026-04-26 10:29 | 13.95557 | 144.40113 | 15469 ft | 394 kts | 315° |
| 2026-04-26 10:29 | 13.97511 | 144.38134 | 16014 ft | 394 kts | 316° |
| 2026-04-26 10:29 | 13.99466 | 144.36154 | 16509 ft | 395 kts | 316° |
| 2026-04-26 10:30 | 14.01435 | 144.34159 | 16915 ft | 399 kts | 316° |
| 2026-04-26 10:30 | 14.03414 | 144.32154 | 17368 ft | 400 kts | 316° |
| 2026-04-26 10:30 | 14.05404 | 144.30137 | 17844 ft | 402 kts | 316° |
| 2026-04-26 10:30 | 14.07400 | 144.28112 | 18269 ft | 403 kts | 316° |
| 2026-04-26 10:31 | 14.09405 | 144.26079 | 18627 ft | 406 kts | 317° |
| 2026-04-26 10:31 | 14.11418 | 144.24036 | 19006 ft | 407 kts | 317° |
| 2026-04-26 10:31 | 14.13445 | 144.21979 | 19337 ft | 410 kts | 316° |
| 2026-04-26 10:31 | 14.15488 | 144.19905 | 19655 ft | 413 kts | 317° |
| 2026-04-26 10:32 | 14.17539 | 144.17823 | 20004 ft | 415 kts | 317° |
| 2026-04-26 10:32 | 14.19603 | 144.15727 | 20347 ft | 418 kts | 317° |
| 2026-04-26 10:32 | 14.21682 | 144.13615 | 20680 ft | 421 kts | 317° |
| 2026-04-26 10:32 | 14.23769 | 144.11494 | 21001 ft | 423 kts | 316° |
| 2026-04-26 10:33 | 14.25870 | 144.09358 | 21324 ft | 425 kts | 317° |
| 2026-04-26 10:33 | 14.27985 | 144.07209 | 21649 ft | 428 kts | 317° |
| 2026-04-26 10:33 | 14.30110 | 144.05048 | 21965 ft | 430 kts | 317° |
| 2026-04-26 10:33 | 14.32243 | 144.02878 | 22261 ft | 433 kts | 317° |
| 2026-04-26 10:34 | 14.34391 | 144.00691 | 22585 ft | 435 kts | 317° |
| 2026-04-26 10:34 | 14.36551 | 143.98492 | 22900 ft | 437 kts | 316° |
| 2026-04-26 10:34 | 14.38714 | 143.96289 | 23228 ft | 438 kts | 316° |
| 2026-04-26 10:34 | 14.40891 | 143.94071 | 23534 ft | 441 kts | 316° |
| 2026-04-26 10:35 | 14.43075 | 143.91845 | 23785 ft | 443 kts | 317° |
| 2026-04-26 10:35 | 14.45270 | 143.89608 | 24050 ft | 444 kts | 316° |
| 2026-04-26 10:35 | 14.47465 | 143.87370 | 24343 ft | 444 kts | 318° |
| 2026-04-26 10:35 | 14.49664 | 143.85127 | 24637 ft | 445 kts | 317° |
| 2026-04-26 10:36 | 14.51865 | 143.82881 | 24874 ft | 447 kts | 317° |
| 2026-04-26 10:36 | 14.54080 | 143.80621 | 25131 ft | 448 kts | 317° |
| 2026-04-26 10:36 | 14.56294 | 143.78361 | 25409 ft | 448 kts | 318° |
| 2026-04-26 10:36 | 14.58507 | 143.76102 | 25717 ft | 448 kts | 317° |
| 2026-04-26 10:37 | 14.60724 | 143.73838 | 25988 ft | 448 kts | 317° |
| 2026-04-26 10:37 | 14.62948 | 143.71566 | 26203 ft | 450 kts | 317° |
| 2026-04-26 10:37 | 14.65174 | 143.69291 | 26499 ft | 450 kts | 317° |
| 2026-04-26 10:37 | 14.67395 | 143.67019 | 26717 ft | 452 kts | 317° |
| 2026-04-26 10:38 | 14.69638 | 143.64727 | 26859 ft | 455 kts | 317° |
| 2026-04-26 10:38 | 14.71882 | 143.62434 | 27227 ft | 452 kts | 318° |
| 2026-04-26 10:38 | 14.74172 | 143.60222 | 27494 ft | 452 kts | 320° |
| 2026-04-26 10:38 | 14.76553 | 143.58072 | 27524 ft | 457 kts | 321° |
| 2026-04-26 10:39 | 14.78979 | 143.55949 | 27768 ft | 457 kts | 321° |
| 2026-04-26 10:39 | 14.81421 | 143.53827 | 27957 ft | 459 kts | 321° |
| 2026-04-26 10:39 | 14.83864 | 143.51699 | 28147 ft | 460 kts | 321° |
| 2026-04-26 10:39 | 14.86311 | 143.49554 | 28327 ft | 462 kts | 321° |
| 2026-04-26 10:40 | 14.88762 | 143.47393 | 28516 ft | 463 kts | 321° |
| 2026-04-26 10:40 | 14.91211 | 143.45224 | 28729 ft | 463 kts | 321° |
| 2026-04-26 10:40 | 14.93645 | 143.43062 | 29117 ft | 460 kts | 321° |
| 2026-04-26 10:40 | 14.96074 | 143.40901 | 29247 ft | 462 kts | 321° |
| 2026-04-26 10:41 | 14.98515 | 143.38728 | 29402 ft | 464 kts | 320° |
| 2026-04-26 10:41 | 15.00973 | 143.36540 | 29501 ft | 467 kts | 320° |
| 2026-04-26 10:41 | 15.03434 | 143.34349 | 29771 ft | 465 kts | 321° |
| 2026-04-26 10:41 | 15.05872 | 143.32177 | 30199 ft | 460 kts | 320° |
| 2026-04-26 10:42 | 15.08295 | 143.30019 | 30429 ft | 459 kts | 321° |
| 2026-04-26 10:42 | 15.10711 | 143.27866 | 30672 ft | 458 kts | 321° |
| 2026-04-26 10:42 | 15.13127 | 143.25714 | 30901 ft | 457 kts | 321° |
| 2026-04-26 10:42 | 15.15538 | 143.23564 | 31106 ft | 457 kts | 321° |
| 2026-04-26 10:43 | 15.17950 | 143.21414 | 31292 ft | 458 kts | 321° |
| 2026-04-26 10:43 | 15.20366 | 143.19259 | 31428 ft | 460 kts | 321° |
| 2026-04-26 10:43 | 15.22786 | 143.17100 | 31684 ft | 458 kts | 320° |
| 2026-04-26 10:43 | 15.25202 | 143.14944 | 31848 ft | 460 kts | 321° |
| 2026-04-26 10:44 | 15.27618 | 143.12787 | 32122 ft | 458 kts | 321° |
| 2026-04-26 10:44 | 15.30018 | 143.10643 | 32515 ft | 453 kts | 321° |
| 2026-04-26 10:44 | 15.32370 | 143.08541 | 32760 ft | 452 kts | 321° |
| 2026-04-26 10:44 | 15.34760 | 143.06405 | 32843 ft | 456 kts | 320° |
| 2026-04-26 10:45 | 15.39586 | 143.02091 | 33229 ft | 456 kts | 321° |
| 2026-04-26 10:45 | 15.41970 | 142.99958 | 33706 ft | 450 kts | 321° |
| 2026-04-26 10:45 | 15.44341 | 142.97836 | 33895 ft | 451 kts | 321° |
| 2026-04-26 10:46 | 15.49118 | 142.93561 | 34153 ft | 453 kts | 321° |
| 2026-04-26 10:46 | 15.51483 | 142.91442 | 34611 ft | 446 kts | 321° |
| 2026-04-26 10:46 | 15.53823 | 142.89344 | 34881 ft | 444 kts | 320° |
| 2026-04-26 10:47 | 15.56165 | 142.87246 | 35033 ft | 445 kts | 321° |
| 2026-04-26 10:47 | 15.58501 | 142.85152 | 35193 ft | 445 kts | 321° |
| 2026-04-26 10:47 | 15.60843 | 142.83052 | 35408 ft | 444 kts | 321° |
| 2026-04-26 10:47 | 15.63179 | 142.80957 | 35564 ft | 444 kts | 320° |
| 2026-04-26 10:48 | 15.65522 | 142.78855 | 35705 ft | 445 kts | 321° |
| 2026-04-26 10:48 | 15.67855 | 142.76761 | 35945 ft | 443 kts | 321° |
| 2026-04-26 10:48 | 15.72530 | 142.72563 | 35978 ft | 445 kts | 320° |
| 2026-04-26 10:49 | 15.77196 | 142.68369 | 35973 ft | 443 kts | 320° |
| 2026-04-26 10:49 | 15.81847 | 142.64187 | 35979 ft | 441 kts | 320° |
| 2026-04-26 10:50 | 15.85729 | 142.60694 | 35978 ft | 441 kts | 320° |
| 2026-04-26 10:50 | 15.91110 | 142.55850 | 35967 ft | 440 kts | 320° |
| 2026-04-26 10:51 | 15.98049 | 142.49597 | 35985 ft | 440 kts | 320° |
| 2026-04-26 10:52 | 16.02681 | 142.45419 | 35984 ft | 441 kts | 320° |
| 2026-04-26 10:52 | 16.07317 | 142.41236 | 35969 ft | 442 kts | 320° |
| 2026-04-26 10:53 | 16.11960 | 142.37042 | 35987 ft | 442 kts | 320° |
| 2026-04-26 10:53 | 16.16595 | 142.32850 | 35972 ft | 442 kts | 320° |
| 2026-04-26 10:54 | 16.23561 | 142.26544 | 35988 ft | 442 kts | 320° |
| 2026-04-26 10:54 | 16.28202 | 142.22339 | 35981 ft | 443 kts | 320° |
| 2026-04-26 10:55 | 16.32843 | 142.18132 | 35986 ft | 442 kts | 320° |
| 2026-04-26 10:55 | 16.36704 | 142.14630 | 35987 ft | 442 kts | 320° |
| 2026-04-26 10:56 | 16.42130 | 142.09704 | 35985 ft | 443 kts | 319° |
| 2026-04-26 10:56 | 16.46772 | 142.05487 | 35987 ft | 443 kts | 320° |
| 2026-04-26 10:57 | 16.51414 | 142.01267 | 35987 ft | 443 kts | 319° |
| 2026-04-26 10:57 | 16.56051 | 141.97049 | 35979 ft | 442 kts | 319° |
| 2026-04-26 10:58 | 16.60715 | 141.92870 | 35987 ft | 441 kts | 321° |
| 2026-04-26 10:58 | 16.65494 | 141.88859 | 35981 ft | 441 kts | 322° |
| 2026-04-26 10:59 | 16.70282 | 141.84881 | 35980 ft | 440 kts | 321° |
| 2026-04-26 10:59 | 16.75052 | 141.80887 | 35975 ft | 439 kts | 321° |
| 2026-04-26 11:00 | 16.79804 | 141.76885 | 35990 ft | 439 kts | 321° |
| 2026-04-26 11:00 | 16.84552 | 141.72875 | 35986 ft | 439 kts | 321° |
| 2026-04-26 11:01 | 16.89304 | 141.68859 | 35986 ft | 440 kts | 321° |
| 2026-04-26 11:01 | 16.93256 | 141.65517 | 36002 ft | 440 kts | 321° |
| 2026-04-26 11:02 | 16.98023 | 141.61484 | 35992 ft | 441 kts | 321° |
| 2026-04-26 11:02 | 17.03571 | 141.56788 | 35989 ft | 442 kts | 320° |
| 2026-04-26 11:03 | 17.08352 | 141.52736 | 35993 ft | 443 kts | 321° |
| 2026-04-26 11:03 | 17.13135 | 141.48682 | 35991 ft | 443 kts | 320° |
| 2026-04-26 11:04 | 17.17142 | 141.45283 | 36002 ft | 442 kts | 320° |
| 2026-04-26 11:04 | 17.21917 | 141.41230 | 35990 ft | 442 kts | 320° |
| 2026-04-26 11:05 | 17.26682 | 141.37182 | 35986 ft | 441 kts | 320° |
| 2026-04-26 11:05 | 17.31432 | 141.33144 | 35982 ft | 440 kts | 320° |
| 2026-04-26 11:06 | 17.36180 | 141.29107 | 35997 ft | 439 kts | 319° |
| 2026-04-26 11:06 | 17.40922 | 141.25069 | 35994 ft | 440 kts | 319° |
| 2026-04-26 11:07 | 17.45671 | 141.21024 | 36001 ft | 441 kts | 319° |
| 2026-04-26 11:07 | 17.50401 | 141.16992 | 35998 ft | 442 kts | 319° |
| 2026-04-26 11:08 | 17.55173 | 141.12922 | 35994 ft | 443 kts | 319° |
| 2026-04-26 11:08 | 17.59956 | 141.08839 | 36000 ft | 444 kts | 319° |
| 2026-04-26 11:09 | 17.64782 | 141.04717 | 35996 ft | 445 kts | 319° |
| 2026-04-26 11:09 | 17.69550 | 141.00642 | 36002 ft | 445 kts | 319° |
| 2026-04-26 11:10 | 17.74391 | 140.96501 | 35997 ft | 446 kts | 319° |
| 2026-04-26 11:10 | 17.79199 | 140.92385 | 36015 ft | 446 kts | 319° |
| 2026-04-26 11:11 | 17.84004 | 140.88269 | 36008 ft | 446 kts | 319° |
| 2026-04-26 11:11 | 17.88811 | 140.84149 | 36007 ft | 446 kts | 319° |
| 2026-04-26 11:12 | 17.93584 | 140.80054 | 36008 ft | 446 kts | 319° |
| 2026-04-26 11:12 | 17.98382 | 140.75935 | 36006 ft | 445 kts | 319° |
| 2026-04-26 11:13 | 18.03179 | 140.71814 | 36011 ft | 445 kts | 319° |
| 2026-04-26 11:13 | 18.07968 | 140.67697 | 36010 ft | 445 kts | 319° |
| 2026-04-26 11:14 | 18.12758 | 140.63576 | 36011 ft | 444 kts | 319° |
| 2026-04-26 11:14 | 18.17538 | 140.59460 | 36012 ft | 444 kts | 319° |
| 2026-04-26 11:15 | 18.22318 | 140.55342 | 36014 ft | 444 kts | 319° |
| 2026-04-26 11:15 | 18.27094 | 140.51224 | 36018 ft | 444 kts | 319° |
| 2026-04-26 11:16 | 18.31874 | 140.47099 | 36017 ft | 444 kts | 319° |
| 2026-04-26 11:16 | 18.36650 | 140.42975 | 36017 ft | 444 kts | 319° |
| 2026-04-26 11:17 | 18.41428 | 140.38846 | 36020 ft | 444 kts | 318° |
| 2026-04-26 11:17 | 18.46208 | 140.34712 | 36022 ft | 445 kts | 318° |
| 2026-04-26 11:18 | 18.50987 | 140.30576 | 36025 ft | 445 kts | 318° |
| 2026-04-26 11:18 | 18.55773 | 140.26431 | 36026 ft | 445 kts | 318° |
| 2026-04-26 11:19 | 18.60559 | 140.22284 | 36024 ft | 445 kts | 318° |
| 2026-04-26 11:19 | 18.65342 | 140.18135 | 36028 ft | 445 kts | 318° |
| 2026-04-26 11:20 | 18.69320 | 140.14682 | 36028 ft | 446 kts | 318° |
| 2026-04-26 11:20 | 18.74915 | 140.09822 | 36024 ft | 446 kts | 318° |
| 2026-04-26 11:21 | 18.79695 | 140.05667 | 36024 ft | 445 kts | 318° |
| 2026-04-26 11:21 | 18.84478 | 140.01505 | 36027 ft | 445 kts | 318° |
| 2026-04-26 11:22 | 18.89254 | 139.97347 | 36033 ft | 445 kts | 317° |
| 2026-04-26 11:22 | 18.94026 | 139.93189 | 36031 ft | 445 kts | 317° |
| 2026-04-26 11:23 | 18.98799 | 139.89027 | 36029 ft | 445 kts | 317° |
| 2026-04-26 11:23 | 19.03568 | 139.84865 | 36030 ft | 444 kts | 317° |
| 2026-04-26 11:24 | 19.08334 | 139.80703 | 36031 ft | 444 kts | 317° |
| 2026-04-26 11:24 | 19.13095 | 139.76542 | 36031 ft | 444 kts | 317° |
| 2026-04-26 11:25 | 19.17859 | 139.72374 | 36036 ft | 444 kts | 317° |
| 2026-04-26 11:25 | 19.22621 | 139.68206 | 36034 ft | 444 kts | 317° |
| 2026-04-26 11:26 | 19.27383 | 139.64034 | 36036 ft | 444 kts | 317° |
| 2026-04-26 11:26 | 19.32144 | 139.59860 | 36042 ft | 444 kts | 317° |
| 2026-04-26 11:27 | 19.36905 | 139.55683 | 36040 ft | 445 kts | 317° |
| 2026-04-26 11:27 | 19.41639 | 139.51525 | 36043 ft | 445 kts | 317° |
| 2026-04-26 11:28 | 19.46434 | 139.47311 | 36039 ft | 445 kts | 317° |
| 2026-04-26 11:28 | 19.51197 | 139.43122 | 36041 ft | 445 kts | 317° |
| 2026-04-26 11:29 | 19.55955 | 139.38934 | 36046 ft | 445 kts | 317° |
| 2026-04-26 11:29 | 19.60686 | 139.34766 | 36043 ft | 445 kts | 317° |
| 2026-04-26 11:30 | 19.64672 | 139.31252 | 36045 ft | 445 kts | 317° |
| 2026-04-26 11:30 | 19.70196 | 139.26379 | 36046 ft | 444 kts | 317° |
| 2026-04-26 11:31 | 19.74947 | 139.22183 | 36044 ft | 444 kts | 317° |
| 2026-04-26 11:31 | 19.79697 | 139.17986 | 36047 ft | 444 kts | 317° |
| 2026-04-26 11:32 | 19.84441 | 139.13789 | 36047 ft | 444 kts | 317° |
| 2026-04-26 11:32 | 19.89184 | 139.09590 | 36046 ft | 444 kts | 317° |
| 2026-04-26 11:33 | 19.93922 | 139.05392 | 36051 ft | 444 kts | 316° |
| 2026-04-26 11:33 | 19.98661 | 139.01190 | 36048 ft | 444 kts | 316° |
| 2026-04-26 11:34 | 20.03892 | 138.97659 | 35627 ft | 465 kts | 341° |
| 2026-04-26 11:34 | 20.07225 | 138.97466 | 33802 ft | 508 kts | 11° |
| 2026-04-26 11:34 | 20.10410 | 138.99405 | 29849 ft | 566 kts | 51° |